Portada
METAR-TAF:

METAR-TAF

Aeroports :

Saint-Denis, Reunió

latitud: 20-53S, longitud: 055-31E, altitud: 21 m

Observació

L'informe es va fer fa 29 minuts, a les 18:00 UTC
Vent 3 kt del Sud
Temperatura 24°C
Humitat 89%
Pressió 1009 hPa
Visibilitat 10 km o més
Cel cobert a una alçada de 4100 ft

METAR: FMEE 031800Z AUTO 18003KT 9999 OVC041 24/22 Q1009 NOSIG

Hora: 22:29 (18:29 UTC)

Pronòstic

L'informe es va fer fa 1 hora i 29 minuts, a les 17:00 UTC
Pronòstic vàlid del 03 a les 18 UTC al 04 a les 24 UTC
Vent 5 kt del Sud
Visibilitat 10 km o més
Núvols disperses a una alçada de 5000 ft
Evolucionant progressivament
l' 04 a les 03 UTC al 04 a les 05 UTC
Vent 10 kt del Est/Sud-Est
Temporalment
l' 04 a les 06 UTC al 04 a les 12 UTC
Vent 15 kt del Est amb ràfegues de 25 kt
xàfecs de pluja

TAF: FMEE 031700Z 0318/0424 18005KT 9999 SCT050 BECMG 0403/0405 12010KT TEMPO 0406/0412 10015G25KT SHRA

Observacions i pronòstics meteorològics de més de 4000 aeroports (METAR i TAF).

Les estacions disponibles són els punts grocs i vermells al mapa.

Posi el ratolí al punt desitjat per veure el nom de l'estació.

Feu clic per veure les observacions i els pronòstics meteorològics.

Per canviar el mapa: feu clic els botons verds amb una creu de color negre per apropar; al botó verd amb un guió per allunyar la imatge; o en les fletxes verdes per a mapes adjacents.


METAR-TAF: